20V

Mc Elroy Airfield Airport

Kremmling, Colorado, USA
METAR K20V 251754Z AUTO 00000KT 10SM CLR 12/M06 A3036 RMK AO2
Observed Flight Rules
Apr-25 @ 17:54 UTC (11 minutes ago) Visual Flight Rules
Visibility Clouds
10 miles
  • Clear skies
Temperatures Readings
Current 12°C / 54°F
Dewpoint -6°C / 21°F
Humidity 28%
Altimeter 30.36" Hg
Pressure 1028 hPa
Elevation 2259
METAR K20V 251754Z AUTO 00000KT 10SM CLR 12/M06 A3036 RMK AO2
Observed Flight Rules
Apr-25 @ 17:54 UTC
(11 minutes ago)
VFR
Clouds
  • Clear skies
Temperature Dewpoint
12°C / 54°F -6°C / 21°F
Humidity Altimeter Pressure
28% 30.36" Hg 1028 hPa